| time (UTC) | temp C | wind direction | speed KPH | gust KPH | rain 1hr cm | rain 24hr cm | rain mn cm | humidity % | barometer mb |
| 20260507051513 | 20 | 243 | 11.3 | 16.1 | 0.00 | 0.00 | 0.00 | 89 | 1013.5 |
| 20260507050011 | 20 | 256 | 14.5 | 19.3 | 0.00 | 0.00 | 0.00 | 89 | 1013.4 |
| 20260507044511 | 20 | 251 | 14.5 | 19.3 | 0.00 | 0.00 | 0.00 | 89 | 1013.3 |
| 20260507043010 | 20 | 249 | 12.9 | 19.3 | 0.00 | 0.00 | 0.00 | 89 | 1013.6 |
| 20260507041512 | 20 | 262 | 17.7 | 22.5 | 0.00 | 0.00 | 0.00 | 89 | 1013.5 |
| 20260507040010 | 20 | 245 | 16.1 | 20.9 | 0.00 | 0.00 | 0.00 | 89 | 1013.6 |
| 20260507034509 | 20 | 258 | 16.1 | 20.9 | 0.00 | 0.00 | 0.00 | 88 | 1013.9 |
| 20260507033009 | 20 | 260 | 14.5 | 19.3 | 0.00 | 0.00 | 0.00 | 88 | 1013.8 |
| 20260507031511 | 20 | 227 | 9.7 | 20.9 | 0.00 | 0.00 | 0.00 | 88 | 1013.9 |
| 20260507030007 | 20 | 248 | 14.5 | 19.3 | 0.00 | 0.00 | 0.00 | 87 | 1013.9 |
| 20260507024508 | 21 | 261 | 9.7 | 12.9 | 0.00 | 0.00 | 0.00 | 86 | 1014.0 |
| 20260507023007 | 21 | 239 | 6.4 | 9.7 | 0.00 | 0.00 | 0.00 | 84 | 1014.1 |
| 20260507021507 | 21 | 156 | 0.0 | 3.2 | 0.00 | 0.00 | 0.00 | 83 | 1013.9 |
| 20260507020008 | 21 | 171 | 1.6 | 4.8 | 0.00 | 0.00 | 0.00 | 84 | 1013.9 |
| 20260507014510 | 21 | 195 | 0.0 | 1.6 | 0.00 | 0.00 | 0.00 | 84 | 1014.0 |
| 20260507013007 | 21 | 195 | 1.6 | 8.0 | 0.00 | 0.00 | 0.00 | 85 | 1013.9 |
| 20260507011508 | 21 | 226 | 6.4 | 12.9 | 0.00 | 0.00 | 0.00 | 87 | 1014.1 |
| 20260507010012 | 21 | 217 | 8.0 | 11.3 | 0.00 | 0.00 | 0.00 | 87 | 1013.9 |
| 20260507004505 | 20 | 244 | 6.4 | 14.5 | 0.00 | 0.00 | 0.00 | 88 | 1013.9 |
| 20260507003013 | 21 | 237 | 9.7 | 17.7 | 0.00 | 0.00 | 0.00 | 88 | 1013.8 |
| 20260507001506 | 21 | 204 | 6.4 | 14.5 | 0.00 | 0.00 | 0.00 | 87 | 1013.6 |
| 20260507000005 | 21 | 250 | 11.3 | 20.9 | 0.00 | 0.00 | 0.00 | 87 | 1013.4 |
| 20260506234505 | 21 | 212 | 16.1 | 25.7 | 0.00 | 0.00 | 0.00 | 87 | 1013.2 |
| 20260506233005 | 21 | 215 | 17.7 | 25.7 | 0.00 | 0.00 | 0.00 | 87 | 1013.0 |
| 20260506231506 | 21 | 198 | 17.7 | 25.7 | 0.00 | 0.00 | 0.00 | 87 | 1012.9 |
| 20260506230010 | 21 | 201 | 19.3 | 25.7 | 0.00 | 0.00 | 0.00 | 87 | 1012.8 |
| 20260506224505 | 21 | 233 | 22.5 | 30.6 | 0.00 | 0.00 | 0.00 | 87 | 1012.8 |
| 20260506223005 | 21 | 219 | 22.5 | 32.2 | 0.00 | 0.00 | 0.00 | 87 | 1012.7 |
| 20260506221505 | 21 | 199 | 22.5 | 30.6 | 0.00 | 0.00 | 0.00 | 87 | 1012.5 |
| 20260506220002 | 21 | 247 | 22.5 | 35.4 | 0.00 | 0.00 | 0.00 | 87 | 1012.3 |
| 20260506214503 | 21 | 226 | 27.4 | 37.0 | 0.00 | 0.00 | 0.00 | 87 | 1012.2 |
| 20260506213002 | 21 | 234 | 29.0 | 38.6 | 0.00 | 0.00 | 0.00 | 87 | 1012.2 |
| 20260506211503 | 21 | 234 | 29.0 | 43.5 | 0.00 | 0.00 | 0.00 | 87 | 1012.3 |
| 20260506210001 | 21 | 234 | 29.0 | 40.2 | 0.00 | 0.00 | 0.00 | 87 | 1012.0 |
| 20260506204504 | 21 | 235 | 30.6 | 40.2 | 0.00 | 0.00 | 0.00 | 87 | 1012.0 |
| 20260506203001 | 21 | 256 | 29.0 | 40.2 | 0.00 | 0.00 | 0.00 | 86 | 1012.0 |
| 20260506201602 | 21 | 254 | 29.0 | 37.0 | 0.00 | 0.00 | 0.00 | 85 | 1012.0 |
| 20260506200100 | 21 | 237 | 30.6 | 37.0 | 0.00 | 0.00 | 0.00 | 84 | 1012.1 |
| 20260506194559 | 22 | 247 | 27.4 | 33.8 | 0.00 | 0.00 | 0.00 | 84 | 1012.2 |
| 20260506193058 | 22 | 246 | 24.1 | 30.6 | 0.00 | 0.00 | 0.00 | 83 | 1012.4 |
| 20260506191559 | 22 | 228 | 22.5 | 30.6 | 0.00 | 0.00 | 0.00 | 83 | 1012.3 |
| 20260506190059 | 22 | 199 | 20.9 | 29.0 | 0.00 | 0.00 | 0.00 | 83 | 1012.6 |
| 20260506184557 | 22 | 235 | 20.9 | 25.7 | 0.00 | 0.00 | 0.00 | 81 | 1012.5 |
| 20260506183058 | 22 | 246 | 16.1 | 22.5 | 0.00 | 0.00 | 0.00 | 80 | 1012.6 |
| 20260506181554 | 22 | 240 | 16.1 | 22.5 | 0.00 | 0.00 | 0.00 | 81 | 1012.8 |
| 20260506180053 | 22 | 237 | 20.9 | 25.7 | 0.00 | 0.00 | 0.00 | 80 | 1012.9 |
| 20260506174559 | 22 | 261 | 17.7 | 22.5 | 0.00 | 0.00 | 0.00 | 80 | 1013.2 |
| 20260506173118 | 22 | 251 | 16.1 | 20.9 | 0.00 | 0.00 | 0.00 | 80 | 1013.3 |
| 20260506171551 | 22 | 251 | 17.7 | 22.5 | 0.00 | 0.00 | 0.00 | 78 | 1013.4 |
| 20260506170050 | 23 | 258 | 16.1 | 20.9 | 0.00 | 0.00 | 0.00 | 78 | 1013.9 |
| 20260506164550 | 22 | 255 | 14.5 | 19.3 | 0.00 | 0.00 | 0.00 | 80 | 1013.9 |
| 20260506163053 | 22 | 243 | 16.1 | 22.5 | 0.00 | 0.00 | 0.00 | 80 | 1014.2 |
| 20260506161550 | 23 | 262 | 12.9 | 19.3 | 0.00 | 0.00 | 0.00 | 77 | 1014.4 |
| 20260506160048 | 22 | 240 | 9.7 | 19.3 | 0.00 | 0.00 | 0.00 | 80 | 1014.8 |
| 20260506154548 | 22 | 238 | 11.3 | 19.3 | 0.00 | 0.00 | 0.00 | 79 | 1014.7 |
| 20260506153047 | 22 | 238 | 14.5 | 20.9 | 0.00 | 0.00 | 0.00 | 79 | 1015.0 |
| 20260506151548 | 22 | 237 | 9.7 | 17.7 | 0.00 | 0.00 | 0.00 | 80 | 1015.0 |
| 20260506150053 | 22 | 277 | 3.2 | 8.0 | 0.00 | 0.00 | 0.00 | 80 | 1015.1 |
| 20260506144559 | 22 | 349 | 4.8 | 11.3 | 0.00 | 0.00 | 0.00 | 80 | 1015.3 |
| 20260506143050 | 22 | 346 | 6.4 | 11.3 | 0.00 | 0.00 | 0.00 | 80 | 1015.1 |
| 20260506141541 | 21 | 337 | 6.4 | 11.3 | 0.00 | 0.00 | 0.00 | 80 | 1015.1 |
| 20260506140057 | 21 | 339 | 4.8 | 8.0 | 0.00 | 0.00 | 0.00 | 80 | 1015.0 |
| 20260506134541 | 22 | 314 | 3.2 | 9.7 | 0.00 | 0.00 | 0.00 | 79 | 1015.0 |
| 20260506133040 | 22 | 356 | 3.2 | 8.0 | 0.00 | 0.00 | 0.00 | 77 | 1014.7 |
| 20260506131543 | 22 | 72 | 3.2 | 6.4 | 0.00 | 0.00 | 0.00 | 79 | 1014.8 |
| 20260506130041 | 21 | 81 | 1.6 | 4.8 | 0.00 | 0.00 | 0.00 | 78 | 1014.6 |
| 20260506124533 | 21 | 157 | 0.0 | 3.2 | 0.00 | 0.00 | 0.00 | 83 | 1014.6 |
| 20260506123037 | 20 | 43 | 0.0 | 3.2 | 0.00 | 0.00 | 0.00 | 85 | 1014.5 |
| 20260506121528 | 19 | 103 | 0.0 | 4.8 | 0.00 | 0.00 | 0.00 | 86 | 1014.6 |
| 20260506120032 | 18 | 145 | 1.6 | 3.2 | 0.00 | 0.00 | 0.00 | 86 | 1014.7 |
| 20260506114526 | 18 | 78 | 0.0 | 1.6 | 0.00 | 0.00 | 0.00 | 87 | 1014.5 |
| 20260506113032 | 18 | 78 | 0.0 | 3.2 | 0.00 | 0.00 | 0.00 | 87 | 1014.5 |
| 20260506111524 | 18 | 45 | 0.0 | 1.6 | 0.00 | 0.00 | 0.00 | 87 | 1014.4 |
| 20260506110032 | 18 | 123 | 0.0 | 3.2 | 0.00 | 0.00 | 0.00 | 87 | 1014.2 |
| 20260506104525 | 18 | 123 | 1.6 | 3.2 | 0.00 | 0.00 | 0.00 | 87 | 1013.9 |
| 20260506103019 | 19 | 158 | 0.0 | 3.2 | 0.00 | 0.00 | 0.00 | 88 | 1013.8 |
| 20260506101514 | 19 | 208 | 3.2 | 8.0 | 0.00 | 0.00 | 0.00 | 89 | 1013.8 |
| 20260506100019 | 20 | 237 | 6.4 | 14.5 | 0.00 | 0.00 | 0.00 | 89 | 1013.6 |
| 20260506094515 | 20 | 240 | 9.7 | 16.1 | 0.00 | 0.00 | 0.00 | 89 | 1013.6 |
| 20260506093015 | 20 | 244 | 6.4 | 11.3 | 0.00 | 0.00 | 0.00 | 88 | 1013.6 |
| 20260506091513 | 20 | 237 | 6.4 | 11.3 | 0.00 | 0.00 | 0.00 | 89 | 1013.5 |
| 20260506090013 | 20 | 191 | 6.4 | 12.9 | 0.00 | 0.00 | 0.00 | 88 | 1013.2 |
| 20260506084511 | 20 | 237 | 6.4 | 9.7 | 0.00 | 0.00 | 0.00 | 88 | 1013.2 |
| 20260506083011 | 20 | 254 | 9.7 | 16.1 | 0.00 | 0.00 | 0.00 | 88 | 1013.3 |
| 20260506081514 | 20 | 264 | 14.5 | 17.7 | 0.00 | 0.00 | 0.00 | 88 | 1013.2 |
| 20260506073010 | 20 | 254 | 6.4 | 9.7 | 0.00 | 0.00 | 0.00 | 85 | 1013.1 |
| 20260506071507 | 20 | 210 | 1.6 | 6.4 | 0.00 | 0.00 | 0.00 | 84 | 1013.1 |
| 20260506061502 | 20 | 242 | 8.0 | 14.5 | 0.00 | 0.00 | 0.00 | 88 | 1013.4 |